createdAt,value
2018-04-29T00:00:36.083Z,79.73
2018-04-29T00:01:36.080Z,79.73
2018-04-29T00:02:35.818Z,79.83
2018-04-29T00:03:36.069Z,80.5
2018-04-29T00:04:36.062Z,80.59
2018-04-29T00:05:36.060Z,80.59
2018-04-29T00:06:36.054Z,80.59
2018-04-29T00:07:36.045Z,80.98
2018-04-29T00:08:36.044Z,81.55
2018-04-29T00:09:36.041Z,81.84
2018-04-29T00:10:35.776Z,81.93
2018-04-29T00:11:36.023Z,82.22
2018-04-29T00:12:36.017Z,82.12
2018-04-29T00:13:36.018Z,82.12
2018-04-29T00:14:36.006Z,81.89
2018-04-29T00:15:36.000Z,82.31
2018-04-29T00:16:35.743Z,82.89
2018-04-29T00:17:35.738Z,82.51
2018-04-29T00:18:35.749Z,82.79
2018-04-29T00:19:35.979Z,82.98
2018-04-29T00:20:35.975Z,83.08
2018-04-29T00:21:35.973Z,82.79
2018-04-29T00:22:35.966Z,83.46
2018-04-29T00:23:35.958Z,83.46
2018-04-29T00:24:35.951Z,83.56
2018-04-29T00:25:35.949Z,83.65
2018-04-29T00:26:35.942Z,83.56
2018-04-29T00:27:35.939Z,83.65
2018-04-29T00:28:35.928Z,83.46
2018-04-29T00:29:35.923Z,83.37
2018-04-29T00:30:35.669Z,83.84
2018-04-29T00:31:35.913Z,84.32
2018-04-29T00:32:35.653Z,84.42
2018-04-29T00:33:35.904Z,84.32
2018-04-29T00:34:35.905Z,84.23
2018-04-29T00:35:35.891Z,84.23
2018-04-29T00:36:35.634Z,84.23
2018-04-29T00:37:35.879Z,84.89
2018-04-29T00:38:36.006Z,85.18
2018-04-29T00:39:35.868Z,84.8
2018-04-29T00:40:35.612Z,85.09
2018-04-29T00:41:35.605Z,85.28
2018-04-29T00:42:35.937Z,85.66
2018-04-29T00:43:35.848Z,85.62
2018-04-29T00:44:35.593Z,85.33
2018-04-29T00:45:35.838Z,85.71
2018-04-29T00:46:35.840Z,85.42
2018-04-29T00:47:35.825Z,85.9
2018-04-29T00:48:35.819Z,86.29
2018-04-29T00:49:35.562Z,86.76
2018-04-29T00:50:35.807Z,86.57
2018-04-29T00:51:35.801Z,86.19
2018-04-29T00:52:35.811Z,86.43
2018-04-29T00:53:35.798Z,86.63
2018-04-29T00:54:35.793Z,86.53
2018-04-29T00:55:35.782Z,87.2
2018-04-29T00:56:35.771Z,86.72
2018-04-29T00:57:35.768Z,86.82
2018-04-29T00:58:35.762Z,86.82
2018-04-29T00:59:35.755Z,87.29
2018-04-29T01:00:35.495Z,87.48
2018-04-29T01:01:35.744Z,87.68
2018-04-29T01:02:35.736Z,87.06
2018-04-29T01:03:35.732Z,87.77
2018-04-29T01:04:35.726Z,87.73
2018-04-29T01:05:35.717Z,87.73
2018-04-29T01:06:35.719Z,87.92
2018-04-29T01:07:35.706Z,87.82
2018-04-29T01:08:35.699Z,88.4
2018-04-29T01:09:35.698Z,88.49
2018-04-29T01:10:35.694Z,88.68
2018-04-29T01:11:35.681Z,88.59
2018-04-29T01:12:35.422Z,88.97
2018-04-29T01:13:35.670Z,88.87
2018-04-29T01:14:35.664Z,88.97
2018-04-29T01:15:35.407Z,88.97
2018-04-29T01:16:35.650Z,89.45
2018-04-29T01:17:35.646Z,89.16
2018-04-29T01:18:35.646Z,89.45
2018-04-29T01:19:35.378Z,89.25
2018-04-29T01:20:35.625Z,89.06
2018-04-29T01:21:35.619Z,89.12
2018-04-29T01:22:35.614Z,89.35
2018-04-29T01:23:35.605Z,89.21
2018-04-29T01:24:35.598Z,89.4
2018-04-29T01:25:35.596Z,89.5
2018-04-29T01:26:35.586Z,89.21
2018-04-29T01:27:35.327Z,89.02
2018-04-29T01:28:35.574Z,89.31
2018-04-29T01:29:35.567Z,89.21
2018-04-29T01:30:35.565Z,89.02
2018-04-29T01:31:35.553Z,88.92
2018-04-29T01:32:35.551Z,89.4
2018-04-29T01:33:35.539Z,89.4
2018-04-29T01:34:35.540Z,89.12
2018-04-29T01:35:35.532Z,89.4
2018-04-29T01:36:35.521Z,89.02
2018-04-29T01:37:35.529Z,89.12
2018-04-29T01:38:35.506Z,89.02
2018-04-29T01:39:35.503Z,89.69
2018-04-29T01:40:35.501Z,89.59
2018-04-29T01:41:35.494Z,89.69
2018-04-29T01:42:35.479Z,89.78
2018-04-29T01:43:35.473Z,89.78
2018-04-29T01:44:35.466Z,90.36
2018-04-29T01:45:35.462Z,90.45
2018-04-29T01:46:35.458Z,90.22
2018-04-29T01:47:35.449Z,90.31
2018-04-29T01:48:35.438Z,90.88
2018-04-29T01:49:35.444Z,90.69
2018-04-29T01:50:35.174Z,90.88
2018-04-29T01:51:35.187Z,90.59
2018-04-29T01:52:35.413Z,90.59
2018-04-29T01:53:35.417Z,90.79
2018-04-29T01:54:35.400Z,90.31
2018-04-29T01:55:35.392Z,90.98
2018-04-29T01:56:35.134Z,91.27
2018-04-29T01:57:35.388Z,91.17
2018-04-29T01:58:35.378Z,90.88
2018-04-29T01:59:35.115Z,90.88
2018-04-29T02:00:35.358Z,91.07
2018-04-29T02:01:35.353Z,90.98
2018-04-29T02:02:35.345Z,91.02
2018-04-29T02:03:35.337Z,91.36
2018-04-29T02:04:35.332Z,90.88
2018-04-29T02:05:35.328Z,91.21
2018-04-29T02:06:35.316Z,91.21
2018-04-29T02:07:35.311Z,91.12
2018-04-29T02:08:35.303Z,91.12
2018-04-29T02:09:35.295Z,90.93
2018-04-29T02:10:35.287Z,91.21
2018-04-29T02:11:35.281Z,90.55
2018-04-29T02:12:35.282Z,90.93
2018-04-29T02:13:35.274Z,91.02
2018-04-29T02:14:35.009Z,90.26
2018-04-29T02:15:35.258Z,90.36
2018-04-29T02:16:35.254Z,90.17
2018-04-29T02:17:35.243Z,90.45
2018-04-29T02:18:35.234Z,90.45
2018-04-29T02:19:35.229Z,90.45
2018-04-29T02:20:35.221Z,90.36
2018-04-29T02:21:35.223Z,90.45
2018-04-29T02:22:35.216Z,90.26
2018-04-29T02:23:35.200Z,90.45
2018-04-29T02:24:34.940Z,91.21
2018-04-29T02:25:34.936Z,90.73
2018-04-29T02:26:35.182Z,90.69
2018-04-29T02:27:35.176Z,90.69
2018-04-29T02:28:35.166Z,91.17
2018-04-29T02:29:35.164Z,91.07
2018-04-29T02:30:35.164Z,91.27
2018-04-29T02:31:35.149Z,91.07
2018-04-29T02:32:35.154Z,91.27
2018-04-29T02:33:35.133Z,90.98
2018-04-29T02:34:35.125Z,91.17
2018-04-29T02:35:35.117Z,91.17
2018-04-29T02:36:35.111Z,90.98
2018-04-29T02:37:35.105Z,90.98
2018-04-29T02:38:35.096Z,91.83
2018-04-29T02:39:35.090Z,91.64
2018-04-29T02:40:35.102Z,92.12
2018-04-29T02:41:34.824Z,92.22
2018-04-29T02:42:34.858Z,92.22
2018-04-29T02:43:35.060Z,92.03
2018-04-29T02:44:35.070Z,92.32
2018-04-29T02:45:34.795Z,91.74
2018-04-29T02:46:34.786Z,92.32
2018-04-29T02:47:35.037Z,91.93
2018-04-29T02:48:35.116Z,92.6
2018-04-29T02:49:35.023Z,92.41
2018-04-29T02:50:35.013Z,92.22
2018-04-29T02:51:35.008Z,92.32
2018-04-29T02:52:35.008Z,92.32
2018-04-29T02:53:34.991Z,92.12
2018-04-29T02:54:35.002Z,92.12
2018-04-29T02:55:34.975Z,92.22
2018-04-29T02:56:34.975Z,92.22
2018-04-29T02:57:34.967Z,92.6
2018-04-29T02:58:34.700Z,92.6
2018-04-29T02:59:34.948Z,92.03
2018-04-29T03:00:34.940Z,92.41
2018-04-29T03:01:34.933Z,92.5
2018-04-29T03:02:34.931Z,92.5
2018-04-29T03:03:34.918Z,92.6
2018-04-29T03:04:34.913Z,92.41
2018-04-29T03:05:34.903Z,92.69
2018-04-29T03:06:34.903Z,93.17
2018-04-29T03:07:34.891Z,92.69
2018-04-29T03:08:34.884Z,93.17
2018-04-29T03:09:34.879Z,92.5
2018-04-29T03:10:34.868Z,92.22
2018-04-29T03:11:34.859Z,92.88
2018-04-29T03:12:34.863Z,92.69
2018-04-29T03:13:34.846Z,92.88
2018-04-29T03:14:34.846Z,92.6
2018-04-29T03:15:34.839Z,92.69
2018-04-29T03:16:34.823Z,92.5
2018-04-29T03:17:34.571Z,92.69
2018-04-29T03:18:34.809Z,92.6
2018-04-29T03:19:34.812Z,92.88
2018-04-29T03:20:34.794Z,92.6
2018-04-29T03:21:34.795Z,92.22
2018-04-29T03:22:34.787Z,92.69
2018-04-29T03:23:34.774Z,92.5
2018-04-29T03:24:34.766Z,92.69
2018-04-29T03:25:34.764Z,92.69
2018-04-29T03:26:34.499Z,92.6
2018-04-29T03:27:34.743Z,92.88
2018-04-29T03:28:34.737Z,92.6
2018-04-29T03:29:34.731Z,92.69
2018-04-29T03:30:34.730Z,92.5
2018-04-29T03:31:34.465Z,92.6
2018-04-29T03:32:34.707Z,93.36
2018-04-29T03:33:34.448Z,93.08
2018-04-29T03:34:34.691Z,92.79
2018-04-29T03:35:34.711Z,92.98
2018-04-29T03:36:34.684Z,93.08
2018-04-29T03:37:34.672Z,93.6
2018-04-29T03:38:34.414Z,93.36
2018-04-29T03:39:34.660Z,93.36
2018-04-29T03:40:34.655Z,93.36
2018-04-29T03:41:34.646Z,93.74
2018-04-29T03:42:34.636Z,93.84
2018-04-29T03:43:34.629Z,93.46
2018-04-29T03:44:34.626Z,93.46
2018-04-29T03:45:34.612Z,93.55
2018-04-29T03:46:34.353Z,93.36
2018-04-29T03:47:34.598Z,93.84
2018-04-29T03:48:34.595Z,93.27
2018-04-29T03:49:34.595Z,93.27
2018-04-29T03:50:34.594Z,93.32
2018-04-29T03:51:34.575Z,93.27
2018-04-29T03:52:34.564Z,93.55
2018-04-29T03:53:34.557Z,93.36
2018-04-29T03:54:34.548Z,93.93
2018-04-29T03:55:34.543Z,93.51
2018-04-29T03:56:34.534Z,93.74
2018-04-29T03:57:34.531Z,93.93
2018-04-29T03:58:34.520Z,93.84
2018-04-29T03:59:34.551Z,93.84
2018-04-29T04:00:34.509Z,93.74
2018-04-29T04:01:34.507Z,93.74
2018-04-29T04:02:34.573Z,93.84
2018-04-29T04:03:34.482Z,93.84
2018-04-29T04:04:34.482Z,93.84
2018-04-29T04:05:34.469Z,93.93
2018-04-29T04:06:34.463Z,93.74
2018-04-29T04:07:34.456Z,93.84
2018-04-29T04:08:34.452Z,93.74
2018-04-29T04:09:34.440Z,93.84
2018-04-29T04:10:34.433Z,93.84
2018-04-29T04:11:34.425Z,93.84
2018-04-29T04:12:34.418Z,93.74
2018-04-29T04:13:34.415Z,93.74
2018-04-29T04:14:34.413Z,93.55
2018-04-29T04:15:34.399Z,93.65
2018-04-29T04:16:34.394Z,93.84
2018-04-29T04:17:34.382Z,93.65
2018-04-29T04:18:34.376Z,94.03
2018-04-29T04:19:34.370Z,94.12
2018-04-29T04:20:34.363Z,94.03
2018-04-29T04:21:34.355Z,94.32
2018-04-29T04:22:34.354Z,93.46
2018-04-29T04:23:34.341Z,93.88
2018-04-29T04:24:34.334Z,94.07
2018-04-29T04:25:34.338Z,93.7
2018-04-29T04:26:34.319Z,93.41
2018-04-29T04:27:34.314Z,93.41
2018-04-29T04:28:34.306Z,93.12
2018-04-29T04:29:34.299Z,92.93
2018-04-29T04:30:34.046Z,93.22
2018-04-29T04:31:34.034Z,92.97
2018-04-29T04:32:34.284Z,92.6
2018-04-29T04:33:34.283Z,92.31
2018-04-29T04:34:34.269Z,92.5
2018-04-29T04:35:34.264Z,92.6
2018-04-29T04:36:34.254Z,92.07
2018-04-29T04:37:34.257Z,91.59
2018-04-29T04:38:33.993Z,91.69
2018-04-29T04:39:34.235Z,91.4
2018-04-29T04:40:34.231Z,91.11
2018-04-29T04:41:34.223Z,90.88
2018-04-29T04:42:34.217Z,90.97
2018-04-29T04:43:34.213Z,90.2
2018-04-29T04:44:34.208Z,90.11
2018-04-29T04:45:33.948Z,89.58
2018-04-29T04:46:34.201Z,89.77
2018-04-29T04:47:34.188Z,89.01
2018-04-29T04:48:34.183Z,88.81
2018-04-29T04:49:34.178Z,88.19
2018-04-29T04:50:33.933Z,88.38
2018-04-29T04:51:34.169Z,88.09
2018-04-29T04:52:34.172Z,87.52
2018-04-29T04:53:34.160Z,86.99
2018-04-29T04:54:34.152Z,86.99
2018-04-29T04:55:34.161Z,86.22
2018-04-29T04:56:34.144Z,86.51
2018-04-29T04:57:34.142Z,86.13
2018-04-29T04:58:34.138Z,86.32
2018-04-29T04:59:34.131Z,85.84
2018-04-29T05:00:34.127Z,85.08
2018-04-29T05:01:34.123Z,85.6
2018-04-29T05:02:34.118Z,85.21
2018-04-29T05:03:34.116Z,84.92
2018-04-29T05:04:34.111Z,84.55
2018-04-29T05:05:34.106Z,84.01
2018-04-29T05:06:34.102Z,83.82
2018-04-29T05:07:34.099Z,83.25
2018-04-29T05:08:34.094Z,83.48
2018-04-29T05:09:34.092Z,83.38
2018-04-29T05:10:33.838Z,82.9
2018-04-29T05:11:34.083Z,82.56
2018-04-29T05:12:33.828Z,82.27
2018-04-29T05:13:34.077Z,81.35
2018-04-29T05:14:34.075Z,80.97
2018-04-29T05:15:34.077Z,80.24
2018-04-29T05:16:34.077Z,80.15
2018-04-29T05:17:34.066Z,79.38
2018-04-29T05:18:34.064Z,79.22
2018-04-29T05:19:34.061Z,78.45
2018-04-29T05:20:34.059Z,78.5
2018-04-29T05:21:33.804Z,77.83
2018-04-29T05:22:34.056Z,77.15
2018-04-29T05:23:34.057Z,76.81
2018-04-29T05:24:34.057Z,75.84
2018-04-29T05:25:34.051Z,75.31
2018-04-29T05:26:34.050Z,75.11
2018-04-29T05:27:34.049Z,74.73
2018-04-29T05:28:34.052Z,73.61
2018-04-29T05:29:34.047Z,73.26
2018-04-29T05:30:33.794Z,72.39
2018-04-29T05:31:34.046Z,71.85
2018-04-29T05:32:34.052Z,71.5
2018-04-29T05:33:34.052Z,70.48
2018-04-29T05:34:34.046Z,69.71
2018-04-29T05:35:34.046Z,68.1
2018-04-29T05:36:34.046Z,66.59
2018-04-29T05:37:34.050Z,65.82
2018-04-29T05:38:34.056Z,64.56
2018-04-29T05:39:34.048Z,63.92
2018-04-29T05:40:34.055Z,62.86
2018-04-29T05:41:34.054Z,61.05
2018-04-29T05:42:33.804Z,60.02
2018-04-29T05:43:34.058Z,56.45
2018-04-29T05:44:34.062Z,55.6
2018-04-29T05:45:34.069Z,55.51
2018-04-29T05:46:34.068Z,55.34
2018-04-29T05:47:34.088Z,55.63
2018-04-29T05:48:34.083Z,54.59
2018-04-29T05:49:34.084Z,53.94
2018-04-29T05:50:34.083Z,52.9
2018-04-29T05:51:33.837Z,51.96
2018-04-29T05:52:33.841Z,50.92
2018-04-29T05:53:34.120Z,49.85
2018-04-29T05:54:34.104Z,48.42
2018-04-29T05:55:34.111Z,47.66
2018-04-29T05:56:34.120Z,47.2
2018-04-29T05:57:34.123Z,46.23
2018-04-29T05:58:34.131Z,45.38
2018-04-29T05:59:34.143Z,44.02
2018-04-29T06:00:34.151Z,42.85
2018-04-29T06:01:34.150Z,42.76
2018-04-29T06:02:34.161Z,42.66
2018-04-29T06:03:33.910Z,43.15
2018-04-29T06:04:34.172Z,43.61
2018-04-29T06:05:34.182Z,43.71
2018-04-29T06:06:34.375Z,43.51
2018-04-29T06:07:34.189Z,43.32
2018-04-29T06:08:34.201Z,42.83
2018-04-29T06:09:34.200Z,42.64
2018-04-29T06:10:34.220Z,43.12
2018-04-29T06:11:34.214Z,41.16
2018-04-29T06:12:34.221Z,41.36
2018-04-29T06:13:34.239Z,42.33
2018-04-29T06:14:34.233Z,42.03
2018-04-29T06:15:34.263Z,42.23
2018-04-29T06:16:34.244Z,41.92
2018-04-29T06:17:34.258Z,41.72
2018-04-29T06:18:34.260Z,42.38
2018-04-29T06:19:34.274Z,42.77
2018-04-29T06:20:34.452Z,42.86
2018-04-29T06:21:34.281Z,43.54
2018-04-29T06:22:34.285Z,44.23
2018-04-29T06:23:34.313Z,43.35
2018-04-29T06:24:34.303Z,43.57
2018-04-29T06:25:34.310Z,43.18
2018-04-29T06:26:34.314Z,42.91
2018-04-29T06:27:34.320Z,42.83
2018-04-29T06:28:34.329Z,42.64
2018-04-29T06:29:34.335Z,41.88
2018-04-29T06:30:34.346Z,41.61
2018-04-29T06:31:34.353Z,41.22
2018-04-29T06:32:34.369Z,41.24
2018-04-29T06:33:34.112Z,41.06
2018-04-29T06:34:34.372Z,40.19
2018-04-29T06:35:34.382Z,39.34
2018-04-29T06:36:34.389Z,40.09
2018-04-29T06:37:34.395Z,40.85
2018-04-29T06:38:34.407Z,41.05
2018-04-29T06:39:34.421Z,41.24
2018-04-29T06:40:34.424Z,40.88
2018-04-29T06:41:34.437Z,40.7
2018-04-29T06:42:34.456Z,40.41
2018-04-29T06:43:34.200Z,39.75
2018-04-29T06:44:34.457Z,39.18
2018-04-29T06:45:34.487Z,38.61
2018-04-29T06:46:34.477Z,38.24
2018-04-29T06:47:34.486Z,37.55
2018-04-29T06:48:34.494Z,37.38
2018-04-29T06:49:34.505Z,37.48
2018-04-29T06:50:34.516Z,37.48
2018-04-29T06:51:34.535Z,36.8
2018-04-29T06:52:34.532Z,36.49
2018-04-29T06:53:34.807Z,36.88
2018-04-29T06:54:34.554Z,37.45
2018-04-29T06:55:34.560Z,37.15
2018-04-29T06:56:34.574Z,37.25
2018-04-29T06:57:34.577Z,37.45
2018-04-29T06:58:34.588Z,36.86
2018-04-29T06:59:34.603Z,37.05
2018-04-29T07:00:34.604Z,37.45
2018-04-29T07:01:34.616Z,37.04
2018-04-29T07:02:34.620Z,37.23
2018-04-29T07:03:34.632Z,37.33
2018-04-29T07:04:34.639Z,37.23
2018-04-29T07:05:34.652Z,37.33
2018-04-29T07:06:34.656Z,36.96
2018-04-29T07:07:34.664Z,36.98
2018-04-29T07:08:34.680Z,35.92
2018-04-29T07:09:34.682Z,35.35
2018-04-29T07:10:34.690Z,34.39
2018-04-29T07:11:34.699Z,33.7
2018-04-29T07:12:34.711Z,33.04
2018-04-29T07:13:34.717Z,31.77
2018-04-29T07:14:34.728Z,31.48
2018-04-29T07:15:34.738Z,30.77
2018-04-29T07:16:34.747Z,31.56
2018-04-29T07:17:34.755Z,32.23
2018-04-29T07:18:34.771Z,33.01
2018-04-29T07:19:34.778Z,32.79
2018-04-29T07:20:34.791Z,32.5
2018-04-29T07:21:34.794Z,32.48
2018-04-29T07:22:34.550Z,32.96
2018-04-29T07:23:34.822Z,33.43
2018-04-29T07:24:34.568Z,34.11
2018-04-29T07:25:34.577Z,34.31
2018-04-29T07:26:34.845Z,33.43
2018-04-29T07:27:34.848Z,33.23
2018-04-29T07:28:34.917Z,33.53
2018-04-29T07:29:34.873Z,33.04
2018-04-29T07:30:34.874Z,33.33
2018-04-29T07:31:34.888Z,33.61
2018-04-29T07:32:34.889Z,34.58
2018-04-29T07:33:34.899Z,35.25
2018-04-29T07:34:34.908Z,35.16
2018-04-29T07:35:34.662Z,33.9
2018-04-29T07:36:35.020Z,33.61
2018-04-29T07:37:34.934Z,33.62
2018-04-29T07:38:34.954Z,33.62
2018-04-29T07:39:34.952Z,33.43
2018-04-29T07:40:34.957Z,33.04
2018-04-29T07:41:34.970Z,33.53
2018-04-29T07:42:34.975Z,33.43
2018-04-29T07:43:34.981Z,33.82
2018-04-29T07:44:35.064Z,33.92
2018-04-29T07:45:34.997Z,33.62
2018-04-29T07:46:35.082Z,33.23
2018-04-29T07:47:35.017Z,33.33
2018-04-29T07:48:35.020Z,33.43
2018-04-29T07:49:35.034Z,33.14
2018-04-29T07:50:35.035Z,32.73
2018-04-29T07:51:34.791Z,33.11
2018-04-29T07:52:35.368Z,34.08
2018-04-29T07:53:35.058Z,34.55
2018-04-29T07:54:35.070Z,34.63
2018-04-29T07:55:35.078Z,35.02
2018-04-29T07:56:35.084Z,35.11
2018-04-29T07:57:35.093Z,35.5
2018-04-29T07:58:35.094Z,35.02
2018-04-29T07:59:35.115Z,35.11
2018-04-29T08:00:35.194Z,35.02
2018-04-29T08:01:35.116Z,34.53
2018-04-29T08:02:34.874Z,34.63
2018-04-29T08:03:35.138Z,34.9
2018-04-29T08:04:35.153Z,35.49
2018-04-29T08:05:34.894Z,36.34
2018-04-29T08:06:35.153Z,36.93
2018-04-29T08:07:35.162Z,37.3
2018-04-29T08:08:35.172Z,37.66
2018-04-29T08:09:35.176Z,37.94
2018-04-29T08:10:35.187Z,38.52
2018-04-29T08:11:35.203Z,38.6
2018-04-29T08:12:35.200Z,38.79
2018-04-29T08:13:35.205Z,38.99
2018-04-29T08:14:35.214Z,39.08
2018-04-29T08:15:35.365Z,38.64
2018-04-29T08:16:34.973Z,38.06
2018-04-29T08:17:35.230Z,37.22
2018-04-29T08:18:35.239Z,37.04
2018-04-29T08:19:35.245Z,36.07
2018-04-29T08:20:35.255Z,35.89
2018-04-29T08:21:35.009Z,35.02
2018-04-29T08:22:35.359Z,35.21
2018-04-29T08:23:35.279Z,35.02
2018-04-29T08:24:35.285Z,35.02
2018-04-29T08:25:35.295Z,35.02
2018-04-29T08:26:35.298Z,34.45
2018-04-29T08:27:35.306Z,34.64
2018-04-29T08:28:35.059Z,34.43
2018-04-29T08:29:35.320Z,34.14
2018-04-29T08:30:35.327Z,33.38
2018-04-29T08:31:35.335Z,34.16
2018-04-29T08:32:35.347Z,34.33
2018-04-29T08:33:35.348Z,34.33
2018-04-29T08:34:35.362Z,33.95
2018-04-29T08:35:35.362Z,33.26
2018-04-29T08:36:35.378Z,33.85
2018-04-29T08:37:35.374Z,34.05
2018-04-29T08:38:35.394Z,34.24
2018-04-29T08:39:35.389Z,34.63
2018-04-29T08:40:35.397Z,35.1
2018-04-29T08:41:35.413Z,35.37
2018-04-29T08:42:35.408Z,36.42
2018-04-29T08:43:35.418Z,37.08
2018-04-29T08:44:35.418Z,37.26
2018-04-29T08:45:35.425Z,38.04
2018-04-29T08:46:35.434Z,38.6
2018-04-29T08:47:35.436Z,38.96
2018-04-29T08:48:35.498Z,39.26
2018-04-29T08:49:35.589Z,38.96
2018-04-29T08:50:35.452Z,38.19
2018-04-29T08:51:35.203Z,38.68
2018-04-29T08:52:35.460Z,39.06
2018-04-29T08:53:35.466Z,39.45
2018-04-29T08:54:35.218Z,38.87
2018-04-29T08:55:35.473Z,39.26
2018-04-29T08:56:35.535Z,39.04
2018-04-29T08:57:35.488Z,39.82
2018-04-29T08:58:35.487Z,40.58
2018-04-29T08:59:35.492Z,41.06
2018-04-29T09:00:35.497Z,41.14
2018-04-29T09:01:35.269Z,41.33
2018-04-29T09:02:35.509Z,41.99
2018-04-29T09:03:35.545Z,41.79
2018-04-29T09:04:35.535Z,42.57
2018-04-29T09:05:35.542Z,42.18
2018-04-29T09:06:35.591Z,42.45
2018-04-29T09:07:35.531Z,41.48
2018-04-29T09:08:35.530Z,41.48
2018-04-29T09:09:35.540Z,41.77
2018-04-29T09:10:35.532Z,42.04
2018-04-29T09:11:35.530Z,42.62
2018-04-29T09:12:35.536Z,42.72
2018-04-29T09:13:35.535Z,43.78
2018-04-29T09:14:35.538Z,44.15
2018-04-29T09:15:35.542Z,44.24
2018-04-29T09:16:35.557Z,44.43
2018-04-29T09:17:35.673Z,44.7
2018-04-29T09:18:35.546Z,45.18
2018-04-29T09:19:35.554Z,46.06
2018-04-29T09:20:35.554Z,46.06
2018-04-29T09:21:35.550Z,46.54
2018-04-29T09:22:35.550Z,45.28
2018-04-29T09:23:35.306Z,44.12
2018-04-29T09:24:35.303Z,43.35
2018-04-29T09:25:35.561Z,43.45
2018-04-29T09:26:35.303Z,43.93
2018-04-29T09:27:35.557Z,44.12
2018-04-29T09:28:35.557Z,44.22
2018-04-29T09:29:35.562Z,44.8
2018-04-29T09:30:35.560Z,45.36
2018-04-29T09:31:35.566Z,45.75
2018-04-29T09:32:35.581Z,45.76
2018-04-29T09:33:35.563Z,45.96
2018-04-29T09:34:35.565Z,46.13
2018-04-29T09:35:35.571Z,46.73
2018-04-29T09:36:35.564Z,45.86
2018-04-29T09:37:35.566Z,45.18
2018-04-29T09:38:35.570Z,45.57
2018-04-29T09:39:35.312Z,45
2018-04-29T09:40:35.311Z,45
2018-04-29T09:41:35.565Z,45.28
2018-04-29T09:42:35.568Z,45.38
2018-04-29T09:43:35.710Z,44.7
2018-04-29T09:44:35.319Z,45
2018-04-29T09:45:35.578Z,44.22
2018-04-29T09:46:35.571Z,44.59
2018-04-29T09:47:35.566Z,44.59
2018-04-29T09:48:35.649Z,44.51
2018-04-29T09:49:35.566Z,45.09
2018-04-29T09:50:35.572Z,45
2018-04-29T09:51:35.567Z,44.8
2018-04-29T09:52:35.569Z,44.42
2018-04-29T09:53:35.570Z,44.2
2018-04-29T09:54:35.314Z,44.32
2018-04-29T09:55:35.567Z,43.54
2018-04-29T09:56:35.569Z,43.84
2018-04-29T09:57:35.567Z,44.78
2018-04-29T09:58:35.576Z,44.59
2018-04-29T09:59:35.315Z,44.22
2018-04-29T10:00:35.314Z,44.12
2018-04-29T10:01:35.572Z,44.51
2018-04-29T10:02:35.565Z,44.8
2018-04-29T10:03:35.314Z,44.29
2018-04-29T10:04:35.320Z,43.74
2018-04-29T10:05:35.315Z,43.64
2018-04-29T10:06:35.318Z,43.72
2018-04-29T10:07:35.569Z,44.39
2018-04-29T10:08:35.568Z,44.68
2018-04-29T10:09:35.739Z,45.07
2018-04-29T10:10:35.567Z,44.01
2018-04-29T10:11:35.314Z,44.01
2018-04-29T10:12:35.567Z,44.49
2018-04-29T10:13:35.313Z,44.97
2018-04-29T10:14:35.572Z,45.07
2018-04-29T10:15:35.569Z,44.78
2018-04-29T10:16:35.568Z,45.07
2018-04-29T10:17:35.569Z,45.36
2018-04-29T10:18:35.575Z,45.84
2018-04-29T10:19:35.570Z,45.94
2018-04-29T10:20:35.567Z,45.55
2018-04-29T10:21:35.576Z,45.65
2018-04-29T10:22:35.574Z,45.55
2018-04-29T10:23:35.564Z,45.07
2018-04-29T10:24:35.392Z,45.17
2018-04-29T10:25:35.566Z,45.65
2018-04-29T10:26:35.312Z,45.86
2018-04-29T10:27:35.567Z,45.94
2018-04-29T10:28:35.313Z,45.65
2018-04-29T10:29:35.564Z,45.76
2018-04-29T10:30:35.575Z,46.06
2018-04-29T10:31:35.563Z,45.86
2018-04-29T10:32:35.564Z,45.76
2018-04-29T10:33:35.563Z,45.57
2018-04-29T10:34:35.564Z,46.06
2018-04-29T10:35:35.566Z,45.86
2018-04-29T10:36:35.563Z,46.06
2018-04-29T10:37:35.648Z,45.76
2018-04-29T10:38:35.573Z,45.86
2018-04-29T10:39:35.563Z,46.25
2018-04-29T10:40:35.563Z,46.34
2018-04-29T10:41:35.572Z,47.5
2018-04-29T10:42:35.564Z,47.31
2018-04-29T10:43:35.568Z,46.44
2018-04-29T10:44:35.563Z,46.08
2018-04-29T10:45:35.561Z,45.21
2018-04-29T10:46:35.566Z,45.4
2018-04-29T10:47:35.577Z,44.53
2018-04-29T10:48:35.564Z,44.24
2018-04-29T10:49:35.579Z,44.15
2018-04-29T10:50:35.311Z,44.82
2018-04-29T10:51:35.643Z,44.24
2018-04-29T10:52:35.795Z,43.66
2018-04-29T10:53:35.561Z,43.57
2018-04-29T10:54:35.570Z,44.24
2018-04-29T10:55:35.563Z,44.24
2018-04-29T10:56:35.654Z,44.53
2018-04-29T10:57:35.563Z,44.63
2018-04-29T10:58:35.562Z,45.59
2018-04-29T10:59:35.569Z,45.89
2018-04-29T11:00:35.572Z,45.89
2018-04-29T11:01:35.564Z,45.79
2018-04-29T11:02:35.563Z,45.98
2018-04-29T11:03:35.568Z,45.89
2018-04-29T11:04:35.563Z,45.42
2018-04-29T11:05:35.567Z,45.62
2018-04-29T11:06:35.568Z,46.3
2018-04-29T11:07:35.568Z,46.58
2018-04-29T11:08:35.568Z,47.55
2018-04-29T11:09:35.564Z,47.45
2018-04-29T11:10:35.569Z,47.65
2018-04-29T11:11:35.566Z,46.68
2018-04-29T11:12:35.315Z,45.64
2018-04-29T11:13:35.567Z,45.62
2018-04-29T11:14:35.583Z,45.33
2018-04-29T11:15:35.566Z,45.14
2018-04-29T11:16:35.568Z,45.23
2018-04-29T11:17:35.593Z,44.56
2018-04-29T11:18:35.570Z,44.46
2018-04-29T11:19:35.569Z,44.77
2018-04-29T11:20:35.583Z,44.67
2018-04-29T11:21:35.574Z,44.29
2018-04-29T11:22:35.570Z,44.48
2018-04-29T11:23:35.571Z,44.48
2018-04-29T11:24:35.579Z,44.29
2018-04-29T11:25:35.647Z,43.9
2018-04-29T11:26:35.571Z,43.99
2018-04-29T11:27:35.583Z,44.19
2018-04-29T11:28:35.770Z,44.96
2018-04-29T11:29:35.575Z,45.74
2018-04-29T11:30:35.593Z,45.35
2018-04-29T11:31:35.577Z,45.45
2018-04-29T11:32:35.580Z,45.45
2018-04-29T11:33:35.576Z,45.25
2018-04-29T11:34:35.576Z,45.45
2018-04-29T11:35:35.581Z,44.89
2018-04-29T11:36:35.325Z,44.31
2018-04-29T11:37:35.580Z,44.77
2018-04-29T11:38:35.586Z,45.08
2018-04-29T11:39:35.326Z,44.87
2018-04-29T11:40:35.720Z,45.18
2018-04-29T11:41:35.581Z,45.47
2018-04-29T11:42:35.581Z,45.08
2018-04-29T11:43:35.582Z,45.28
2018-04-29T11:44:35.585Z,45.18
2018-04-29T11:45:35.332Z,44.79
2018-04-29T11:46:35.589Z,44.7
2018-04-29T11:47:35.586Z,45.08
2018-04-29T11:48:35.586Z,44.7
2018-04-29T11:49:35.587Z,44.5
2018-04-29T11:50:35.590Z,44.31
2018-04-29T11:51:35.589Z,44.6
2018-04-29T11:52:35.597Z,44.79
2018-04-29T11:53:35.593Z,44.89
2018-04-29T11:54:35.594Z,44.89
2018-04-29T11:55:35.595Z,44.5
2018-04-29T11:56:35.592Z,44.21
2018-04-29T11:57:35.593Z,44.4
2018-04-29T11:58:35.594Z,44.31
2018-04-29T11:59:35.594Z,44.6
2018-04-29T12:00:35.595Z,44.4
2018-04-29T12:01:35.596Z,44.12
2018-04-29T12:02:35.346Z,43.63
2018-04-29T12:03:35.607Z,43.34
2018-04-29T12:04:35.599Z,43.34
2018-04-29T12:05:35.603Z,43.24
2018-04-29T12:06:35.347Z,43.44
2018-04-29T12:07:35.601Z,42.96
2018-04-29T12:08:35.604Z,43.34
2018-04-29T12:09:35.601Z,43.54
2018-04-29T12:10:35.603Z,43.54
2018-04-29T12:11:35.603Z,43.34
2018-04-29T12:12:35.606Z,42.86
2018-04-29T12:13:35.607Z,43.34
2018-04-29T12:14:35.353Z,42.76
2018-04-29T12:15:35.433Z,43.82
2018-04-29T12:16:35.733Z,43.34
2018-04-29T12:17:35.615Z,43.63
2018-04-29T12:18:35.608Z,42.66
2018-04-29T12:19:35.612Z,42.86
2018-04-29T12:20:35.614Z,42.86
2018-04-29T12:21:35.610Z,42.66
2018-04-29T12:22:35.614Z,42.47
2018-04-29T12:23:35.360Z,42.37
2018-04-29T12:24:35.682Z,42.08
2018-04-29T12:25:35.618Z,42.96
2018-04-29T12:26:35.619Z,42.47
2018-04-29T12:27:35.624Z,42.47
2018-04-29T12:28:35.615Z,42.76
2018-04-29T12:29:35.631Z,42.66
2018-04-29T12:30:35.620Z,42.18
2018-04-29T12:31:35.617Z,42.47
2018-04-29T12:32:35.620Z,42.66
2018-04-29T12:33:35.773Z,42.37
2018-04-29T12:34:35.372Z,41.99
2018-04-29T12:35:35.620Z,41.99
2018-04-29T12:36:35.621Z,42.59
2018-04-29T12:37:35.633Z,42.57
2018-04-29T12:38:35.628Z,42.2
2018-04-29T12:39:35.628Z,42.1
2018-04-29T12:40:35.625Z,42.2
2018-04-29T12:41:35.636Z,42.49
2018-04-29T12:42:35.627Z,42.78
2018-04-29T12:43:35.628Z,42.86
2018-04-29T12:44:35.628Z,43.37
2018-04-29T12:45:35.630Z,43.37
2018-04-29T12:46:35.704Z,42.78
2018-04-29T12:47:35.639Z,42.49
2018-04-29T12:48:35.635Z,42.49
2018-04-29T12:49:35.635Z,41.91
2018-04-29T12:50:35.643Z,42
2018-04-29T12:51:35.651Z,41.82
2018-04-29T12:52:35.641Z,41.62
2018-04-29T12:53:35.637Z,41.91
2018-04-29T12:54:35.638Z,43.55
2018-04-29T12:55:35.640Z,43.55